< < Back
Terminal Aerodrome Forecast


Current Version              Previous Versions:   1  2  3  4  5  6  7  8  9  

Terminal Aerodrome Forecast

728
FTUS42 KTAE 011900 AAA
TAFTLH
TAF AMD
KTLH 011925Z 0119/0218 14004KT P6SM SCT050
      TEMPO 0119/0121 VRB15G25KT 1SM TSRA BKN025CB OVC100
     FM020300 00000KT P6SM FEW250
     FM021500 08004KT P6SM FEW040=



Latest METAR

313
SAUS80 KWBC 011700 RRQ
MTRTLH
METAR KTLH 021653Z VRB03KT 10SM SCT040 BKN250 34/21 A3008 RMK AO2 SLP184
T03390206


USA.gov is the U.S. government's official web portal to all federal, state and local government web resources and services.